createdAt,value
2018-07-09T00:00:33.094Z,17.49
2018-07-09T00:01:33.119Z,17.52
2018-07-09T00:02:33.135Z,17.47
2018-07-09T00:03:33.156Z,17.45
2018-07-09T00:04:33.175Z,17.42
2018-07-09T00:05:33.198Z,17.42
2018-07-09T00:06:33.222Z,17.27
2018-07-09T00:07:33.238Z,17.31
2018-07-09T00:08:33.260Z,17.24
2018-07-09T00:09:33.283Z,17.25
2018-07-09T00:10:33.302Z,17.22
2018-07-09T00:11:33.324Z,17.25
2018-07-09T00:12:33.343Z,17.17
2018-07-09T00:13:33.363Z,17.21
2018-07-09T00:14:33.388Z,17.20
2018-07-09T00:15:33.407Z,17.22
2018-07-09T00:16:33.426Z,17.21
2018-07-09T00:17:33.449Z,17.22
2018-07-09T00:18:33.470Z,17.17
2018-07-09T00:19:33.489Z,17.20
2018-07-09T00:20:33.513Z,17.03
2018-07-09T00:21:33.531Z,17.06
2018-07-09T00:22:33.553Z,17.07
2018-07-09T00:23:33.574Z,16.99
2018-07-09T00:24:33.591Z,16.95
2018-07-09T00:25:33.613Z,17.02
2018-07-09T00:26:33.635Z,17.00
2018-07-09T00:27:33.653Z,17.02
2018-07-09T00:28:33.675Z,16.91
2018-07-09T00:29:33.699Z,16.90
2018-07-09T00:30:33.720Z,16.87
2018-07-09T00:31:33.738Z,16.99
2018-07-09T00:32:33.757Z,16.91
2018-07-09T00:33:33.782Z,16.91
2018-07-09T00:34:33.799Z,16.97
2018-07-09T00:35:33.819Z,16.94
2018-07-09T00:36:33.840Z,16.97
2018-07-09T00:37:33.864Z,16.97
2018-07-09T00:38:33.882Z,16.95
2018-07-09T00:39:33.905Z,16.94
2018-07-09T00:40:33.924Z,17.00
2018-07-09T00:41:33.944Z,16.82
2018-07-09T00:42:33.965Z,16.81
2018-07-09T00:43:33.986Z,16.92
2018-07-09T00:44:34.009Z,16.90
2018-07-09T00:45:34.027Z,16.92
2018-07-09T00:46:34.053Z,16.94
2018-07-09T00:47:34.067Z,16.80
2018-07-09T00:48:34.095Z,16.82
2018-07-09T00:49:34.112Z,16.74
2018-07-09T00:50:34.132Z,16.72
2018-07-09T00:51:34.151Z,16.74
2018-07-09T00:52:34.173Z,16.70
2018-07-09T00:53:34.193Z,16.62
2018-07-09T00:54:34.213Z,16.67
2018-07-09T00:55:34.240Z,16.63
2018-07-09T00:56:34.256Z,16.66
2018-07-09T00:57:34.276Z,16.57
2018-07-09T00:58:34.297Z,16.62
2018-07-09T00:59:34.317Z,16.63
2018-07-09T01:00:34.371Z,16.55
2018-07-09T01:01:34.358Z,16.55
2018-07-09T01:02:34.381Z,16.52
2018-07-09T01:03:34.399Z,16.52
2018-07-09T01:04:34.418Z,16.48
2018-07-09T01:05:34.448Z,16.54
2018-07-09T01:06:34.461Z,16.47
2018-07-09T01:07:34.479Z,16.39
2018-07-09T01:08:34.499Z,16.45
2018-07-09T01:09:34.522Z,16.52
2018-07-09T01:10:34.544Z,16.51
2018-07-09T01:11:34.562Z,16.42
2018-07-09T01:12:34.582Z,16.45
2018-07-09T01:13:34.604Z,16.49
2018-07-09T01:14:34.626Z,16.51
2018-07-09T01:15:34.642Z,16.51
2018-07-09T01:16:34.666Z,16.45
2018-07-09T01:17:34.687Z,16.44
2018-07-09T01:18:34.708Z,16.45
2018-07-09T01:19:34.725Z,16.47
2018-07-09T01:20:34.748Z,16.48
2018-07-09T01:21:34.769Z,16.42
2018-07-09T01:22:34.789Z,16.40
2018-07-09T01:23:34.806Z,16.40
2018-07-09T01:24:34.827Z,16.42
2018-07-09T01:25:34.847Z,16.33
2018-07-09T01:26:34.868Z,16.33
2018-07-09T01:27:34.887Z,16.25
2018-07-09T01:28:34.908Z,16.27
2018-07-09T01:29:34.930Z,16.25
2018-07-09T01:30:34.952Z,16.25
2018-07-09T01:31:34.973Z,16.25
2018-07-09T01:32:34.991Z,16.21
2018-07-09T01:33:35.011Z,16.21
2018-07-09T01:34:35.035Z,16.25
2018-07-09T01:35:35.054Z,16.21
2018-07-09T01:36:35.083Z,16.13
2018-07-09T01:37:35.095Z,16.13
2018-07-09T01:38:35.114Z,16.17
2018-07-09T01:39:35.135Z,16.08
2018-07-09T01:40:35.157Z,16.07
2018-07-09T01:41:35.177Z,16.07
2018-07-09T01:42:35.197Z,16.07
2018-07-09T01:43:35.216Z,16.07
2018-07-09T01:44:35.241Z,16.13
2018-07-09T01:45:35.255Z,16.06
2018-07-09T01:46:35.276Z,16.04
2018-07-09T01:47:35.302Z,16.04
2018-07-09T01:48:35.316Z,16.10
2018-07-09T01:49:35.339Z,15.98
2018-07-09T01:50:35.357Z,15.96
2018-07-09T01:51:35.381Z,15.96
2018-07-09T01:52:35.401Z,15.96
2018-07-09T01:53:35.422Z,15.95
2018-07-09T01:54:35.446Z,15.98
2018-07-09T01:55:35.460Z,15.98
2018-07-09T01:56:35.482Z,15.93
2018-07-09T01:57:35.502Z,15.93
2018-07-09T01:58:35.522Z,15.98
2018-07-09T01:59:35.543Z,15.93
2018-07-09T02:00:35.562Z,15.88
2018-07-09T02:01:35.582Z,15.86
2018-07-09T02:02:35.605Z,15.81
2018-07-09T02:03:35.622Z,15.84
2018-07-09T02:04:35.642Z,15.84
2018-07-09T02:05:35.665Z,15.89
2018-07-09T02:06:35.683Z,15.93
2018-07-09T02:07:35.707Z,15.88
2018-07-09T02:08:35.724Z,15.86
2018-07-09T02:09:35.744Z,15.84
2018-07-09T02:10:35.768Z,15.86
2018-07-09T02:11:35.787Z,15.88
2018-07-09T02:12:35.806Z,15.83
2018-07-09T02:13:35.827Z,15.81
2018-07-09T02:14:35.847Z,15.80
2018-07-09T02:15:35.865Z,15.73
2018-07-09T02:16:35.884Z,15.71
2018-07-09T02:17:35.907Z,15.71
2018-07-09T02:18:35.929Z,15.73
2018-07-09T02:19:35.944Z,15.62
2018-07-09T02:20:36.020Z,15.63
2018-07-09T02:21:35.986Z,15.59
2018-07-09T02:22:36.007Z,15.63
2018-07-09T02:23:36.029Z,15.59
2018-07-09T02:24:36.047Z,15.63
2018-07-09T02:25:36.066Z,15.59
2018-07-09T02:26:36.087Z,15.60
2018-07-09T02:27:36.108Z,15.56
2018-07-09T02:28:36.130Z,15.44
2018-07-09T02:29:36.152Z,15.59
2018-07-09T02:30:36.168Z,15.60
2018-07-09T02:31:36.190Z,15.55
2018-07-09T02:32:36.211Z,15.44
2018-07-09T02:33:36.228Z,15.51
2018-07-09T02:34:36.252Z,15.43
2018-07-09T02:35:36.273Z,15.45
2018-07-09T02:36:36.292Z,15.49
2018-07-09T02:37:36.311Z,15.44
2018-07-09T02:38:36.330Z,15.44
2018-07-09T02:39:36.349Z,15.45
2018-07-09T02:40:36.373Z,15.55
2018-07-09T02:41:36.392Z,15.52
2018-07-09T02:42:36.410Z,15.45
2018-07-09T02:43:36.430Z,15.43
2018-07-09T02:44:36.453Z,15.52
2018-07-09T02:45:36.470Z,15.43
2018-07-09T02:46:36.494Z,15.47
2018-07-09T02:47:36.512Z,15.40
2018-07-09T02:48:36.530Z,15.40
2018-07-09T02:49:36.554Z,15.41
2018-07-09T02:50:36.571Z,15.40
2018-07-09T02:51:36.592Z,15.44
2018-07-09T02:52:36.614Z,15.33
2018-07-09T02:53:36.635Z,15.44
2018-07-09T02:54:36.656Z,15.44
2018-07-09T02:55:36.672Z,15.43
2018-07-09T02:56:36.696Z,15.44
2018-07-09T02:57:36.711Z,15.44
2018-07-09T02:58:36.733Z,15.34
2018-07-09T02:59:36.754Z,15.34
2018-07-09T03:00:36.775Z,15.33
2018-07-09T03:01:36.800Z,15.35
2018-07-09T03:02:36.821Z,15.38
2018-07-09T03:03:36.831Z,15.33
2018-07-09T03:04:36.852Z,15.27
2018-07-09T03:05:36.875Z,15.30
2018-07-09T03:06:36.894Z,15.35
2018-07-09T03:07:36.912Z,15.35
2018-07-09T03:08:36.934Z,15.26
2018-07-09T03:09:36.953Z,15.34
2018-07-09T03:10:36.974Z,15.22
2018-07-09T03:11:36.993Z,15.30
2018-07-09T03:12:37.022Z,15.22
2018-07-09T03:13:37.036Z,15.26
2018-07-09T03:14:37.057Z,15.23
2018-07-09T03:15:37.076Z,15.22
2018-07-09T03:16:37.096Z,15.30
2018-07-09T03:17:37.113Z,15.30
2018-07-09T03:18:37.135Z,15.18
2018-07-09T03:19:37.156Z,15.18
2018-07-09T03:20:37.176Z,15.15
2018-07-09T03:21:37.194Z,15.18
2018-07-09T03:22:37.218Z,15.13
2018-07-09T03:23:37.232Z,15.23
2018-07-09T03:24:37.256Z,15.16
2018-07-09T03:25:37.275Z,15.10
2018-07-09T03:26:37.297Z,15.13
2018-07-09T03:27:37.316Z,15.16
2018-07-09T03:28:37.335Z,15.05
2018-07-09T03:29:37.403Z,15.13
2018-07-09T03:30:37.376Z,15.13
2018-07-09T03:31:37.394Z,15.13
2018-07-09T03:32:37.414Z,15.12
2018-07-09T03:33:37.434Z,15.10
2018-07-09T03:34:37.456Z,15.13
2018-07-09T03:35:37.472Z,15.10
2018-07-09T03:36:37.493Z,15.10
2018-07-09T03:37:37.516Z,15.20
2018-07-09T03:38:37.538Z,15.13
2018-07-09T03:39:37.552Z,15.12
2018-07-09T03:40:37.572Z,15.12
2018-07-09T03:41:37.592Z,15.18
2018-07-09T03:42:37.616Z,15.15
2018-07-09T03:43:37.634Z,15.08
2018-07-09T03:44:37.652Z,15.15
2018-07-09T03:45:37.676Z,15.13
2018-07-09T03:46:37.699Z,15.19
2018-07-09T03:47:37.714Z,15.13
2018-07-09T03:48:37.733Z,15.13
2018-07-09T03:49:37.752Z,15.13
2018-07-09T03:50:37.775Z,15.15
2018-07-09T03:51:37.794Z,15.27
2018-07-09T03:52:37.813Z,15.16
2018-07-09T03:53:37.835Z,15.15
2018-07-09T03:54:37.856Z,15.18
2018-07-09T03:55:37.874Z,15.22
2018-07-09T03:56:37.892Z,15.16
2018-07-09T03:57:37.915Z,15.16
2018-07-09T03:58:37.934Z,15.13
2018-07-09T03:59:37.955Z,15.13
2018-07-09T04:00:37.973Z,15.25
2018-07-09T04:01:37.993Z,15.25
2018-07-09T04:02:38.018Z,15.19
2018-07-09T04:03:38.032Z,15.23
2018-07-09T04:04:38.054Z,15.20
2018-07-09T04:05:38.072Z,15.16
2018-07-09T04:06:38.092Z,15.12
2018-07-09T04:07:38.112Z,15.12
2018-07-09T04:08:38.131Z,15.16
2018-07-09T04:09:38.153Z,15.13
2018-07-09T04:10:38.173Z,15.08
2018-07-09T04:11:38.194Z,15.13
2018-07-09T04:12:38.214Z,15.10
2018-07-09T04:13:38.232Z,15.12
2018-07-09T04:14:38.260Z,15.12
2018-07-09T04:15:38.273Z,15.10
2018-07-09T04:16:38.294Z,15.19
2018-07-09T04:17:38.313Z,15.22
2018-07-09T04:18:38.333Z,15.13
2018-07-09T04:19:38.353Z,15.25
2018-07-09T04:20:38.374Z,15.22
2018-07-09T04:21:38.392Z,15.19
2018-07-09T04:22:38.411Z,15.26
2018-07-09T04:23:38.434Z,15.27
2018-07-09T04:24:38.454Z,15.25
2018-07-09T04:25:38.474Z,15.25
2018-07-09T04:26:38.492Z,15.33
2018-07-09T04:27:38.512Z,15.34
2018-07-09T04:28:38.533Z,15.35
2018-07-09T04:29:38.553Z,15.34
2018-07-09T04:30:38.574Z,15.40
2018-07-09T04:31:38.599Z,15.33
2018-07-09T04:32:38.614Z,15.38
2018-07-09T04:33:38.635Z,15.47
2018-07-09T04:34:38.654Z,15.47
2018-07-09T04:35:38.673Z,15.43
2018-07-09T04:36:38.693Z,15.58
2018-07-09T04:37:38.747Z,15.58
2018-07-09T04:38:38.735Z,15.60
2018-07-09T04:39:38.753Z,15.58
2018-07-09T04:40:38.771Z,15.58
2018-07-09T04:41:38.796Z,15.65
2018-07-09T04:42:38.812Z,15.67
2018-07-09T04:43:38.831Z,15.70
2018-07-09T04:44:38.855Z,15.67
2018-07-09T04:45:38.873Z,15.70
2018-07-09T04:46:38.892Z,15.65
2018-07-09T04:47:38.913Z,15.77
2018-07-09T04:48:38.933Z,15.81
2018-07-09T04:49:38.954Z,15.88
2018-07-09T04:50:38.973Z,15.96
2018-07-09T04:51:38.992Z,16.00
2018-07-09T04:52:39.013Z,16.08
2018-07-09T04:53:39.037Z,16.08
2018-07-09T04:54:39.053Z,16.18
2018-07-09T04:55:39.074Z,16.29
2018-07-09T04:56:39.096Z,16.29
2018-07-09T04:57:39.117Z,16.34
2018-07-09T04:58:39.135Z,16.42
2018-07-09T04:59:39.157Z,16.42
2018-07-09T05:00:39.177Z,16.45
2018-07-09T05:01:39.194Z,16.49
2018-07-09T05:02:39.216Z,16.55
2018-07-09T05:03:39.234Z,16.63
2018-07-09T05:04:39.258Z,16.67
2018-07-09T05:05:39.341Z,16.69
2018-07-09T05:06:39.300Z,16.88
2018-07-09T05:07:39.316Z,16.82
2018-07-09T05:08:39.340Z,16.82
2018-07-09T05:09:39.359Z,16.97
2018-07-09T05:10:39.379Z,16.99
2018-07-09T05:11:39.402Z,16.88
2018-07-09T05:12:39.654Z,17.00
2018-07-09T05:13:39.444Z,16.95
2018-07-09T05:14:39.464Z,16.92
2018-07-09T05:15:39.482Z,17.07
2018-07-09T05:16:39.574Z,17.05
2018-07-09T05:17:39.525Z,17.30
2018-07-09T05:18:39.553Z,17.35
2018-07-09T05:19:39.566Z,17.31
2018-07-09T05:20:39.641Z,17.50
2018-07-09T05:21:39.607Z,17.58
2018-07-09T05:22:39.631Z,17.65
2018-07-09T05:23:39.654Z,17.69
2018-07-09T05:24:39.670Z,17.77
2018-07-09T05:25:39.693Z,17.74
2018-07-09T05:26:39.713Z,17.92
2018-07-09T05:27:39.733Z,17.86
2018-07-09T05:28:39.755Z,17.83
2018-07-09T05:29:39.779Z,17.86
2018-07-09T05:30:39.797Z,17.87
2018-07-09T05:31:39.821Z,17.99
2018-07-09T05:32:39.842Z,18.06
2018-07-09T05:33:39.861Z,18.02
2018-07-09T05:34:39.886Z,18.10
2018-07-09T05:35:39.906Z,18.21
2018-07-09T05:36:39.925Z,18.31
2018-07-09T05:37:39.947Z,18.41
2018-07-09T05:38:39.970Z,18.38
2018-07-09T05:39:39.988Z,18.59
2018-07-09T05:40:40.015Z,18.42
2018-07-09T05:41:40.033Z,18.63
2018-07-09T05:42:40.055Z,18.79
2018-07-09T05:43:40.076Z,18.97
2018-07-09T05:44:40.101Z,18.97
2018-07-09T05:45:40.121Z,18.93
2018-07-09T05:46:40.142Z,19.02
2018-07-09T05:47:40.163Z,19.09
2018-07-09T05:48:40.185Z,19.17
2018-07-09T05:49:40.207Z,19.19
2018-07-09T05:50:40.237Z,19.16
2018-07-09T05:51:40.252Z,19.19
2018-07-09T05:52:40.275Z,19.17
2018-07-09T05:53:40.296Z,19.16
2018-07-09T05:54:40.320Z,19.19
2018-07-09T05:55:40.339Z,19.15
2018-07-09T05:56:40.364Z,19.19
2018-07-09T05:57:40.384Z,19.30
2018-07-09T05:58:40.410Z,19.38
2018-07-09T05:59:40.432Z,19.35
2018-07-09T06:00:40.452Z,19.31
2018-07-09T06:01:40.474Z,19.50
2018-07-09T06:02:40.500Z,19.57
2018-07-09T06:03:40.518Z,19.72
2018-07-09T06:04:40.546Z,19.83
2018-07-09T06:05:40.564Z,20.16
2018-07-09T06:06:40.589Z,20.46
2018-07-09T06:07:40.608Z,20.41
2018-07-09T06:08:40.632Z,20.63
2018-07-09T06:09:40.655Z,20.57
2018-07-09T06:10:40.677Z,20.07
2018-07-09T06:11:40.700Z,20.00
2018-07-09T06:12:40.726Z,20.12
2018-07-09T06:13:40.794Z,20.05
2018-07-09T06:14:40.769Z,19.71
2018-07-09T06:15:40.793Z,19.57
2018-07-09T06:16:40.818Z,19.46
2018-07-09T06:17:40.838Z,19.30
2018-07-09T06:18:40.864Z,19.20
2018-07-09T06:19:40.892Z,19.13
2018-07-09T06:20:40.907Z,19.25
2018-07-09T06:21:40.934Z,19.56
2018-07-09T06:22:40.955Z,19.53
2018-07-09T06:23:40.977Z,19.60
2018-07-09T06:24:41.003Z,19.38
2018-07-09T06:25:41.024Z,19.56
2018-07-09T06:26:41.048Z,19.74
2018-07-09T06:27:41.070Z,19.82
2018-07-09T06:28:41.091Z,19.56
2018-07-09T06:29:41.119Z,19.57
2018-07-09T06:30:41.142Z,19.50
2018-07-09T06:31:41.163Z,19.42
2018-07-09T06:32:41.184Z,19.25
2018-07-09T06:33:41.209Z,19.23
2018-07-09T06:34:41.230Z,19.16
2018-07-09T06:35:41.254Z,19.19
2018-07-09T06:36:41.276Z,19.12
2018-07-09T06:37:41.301Z,19.20
2018-07-09T06:38:41.327Z,19.16
2018-07-09T06:39:41.347Z,19.23
2018-07-09T06:40:41.368Z,19.13
2018-07-09T06:41:41.393Z,19.16
2018-07-09T06:42:41.413Z,19.09
2018-07-09T06:43:41.435Z,18.99
2018-07-09T06:44:41.522Z,18.94
2018-07-09T06:45:41.485Z,19.10
2018-07-09T06:46:41.506Z,19.16
2018-07-09T06:47:41.528Z,19.32
2018-07-09T06:48:41.550Z,19.53
2018-07-09T06:49:41.572Z,19.50
2018-07-09T06:50:41.600Z,19.49
2018-07-09T06:51:41.621Z,19.37
2018-07-09T06:52:41.637Z,19.35
2018-07-09T06:53:41.673Z,19.35
2018-07-09T06:54:41.683Z,19.53
2018-07-09T06:55:41.704Z,19.64
2018-07-09T06:56:41.727Z,19.72
2018-07-09T06:57:41.749Z,19.74
2018-07-09T06:58:41.773Z,19.83
2018-07-09T06:59:41.795Z,20.10
2018-07-09T07:00:41.820Z,20.18
2018-07-09T07:01:41.841Z,20.30
2018-07-09T07:02:41.867Z,20.44
2018-07-09T07:03:41.887Z,20.44
2018-07-09T07:04:41.908Z,20.37
2018-07-09T07:05:41.929Z,20.42
2018-07-09T07:06:41.954Z,20.49
2018-07-09T07:07:41.975Z,20.49
2018-07-09T07:08:42.042Z,20.51
2018-07-09T07:09:42.020Z,20.67
2018-07-09T07:10:42.045Z,20.67
2018-07-09T07:11:42.069Z,20.72
2018-07-09T07:12:42.090Z,20.61
2018-07-09T07:13:42.111Z,20.57
2018-07-09T07:14:42.134Z,20.46
2018-07-09T07:15:42.159Z,20.35
2018-07-09T07:16:42.183Z,20.44
2018-07-09T07:17:42.205Z,20.53
2018-07-09T07:18:42.229Z,20.57
2018-07-09T07:19:42.254Z,20.64
2018-07-09T07:20:42.271Z,20.83
2018-07-09T07:21:42.294Z,21.01
2018-07-09T07:22:42.320Z,21.41
2018-07-09T07:23:42.343Z,22.04
2018-07-09T07:24:42.364Z,22.48
2018-07-09T07:25:42.389Z,22.18
2018-07-09T07:26:42.414Z,22.45
2018-07-09T07:27:42.434Z,22.64
2018-07-09T07:28:42.459Z,23.18
2018-07-09T07:29:42.481Z,23.38
2018-07-09T07:30:42.506Z,23.06
2018-07-09T07:31:42.526Z,22.44
2018-07-09T07:32:42.594Z,22.41
2018-07-09T07:33:42.578Z,22.36
2018-07-09T07:34:42.608Z,22.15
2018-07-09T07:35:42.625Z,22.12
2018-07-09T07:36:42.649Z,21.78
2018-07-09T07:37:42.673Z,21.74
2018-07-09T07:38:42.699Z,21.86
2018-07-09T07:39:42.718Z,21.71
2018-07-09T07:40:42.747Z,21.64
2018-07-09T07:41:42.768Z,21.64
2018-07-09T07:42:42.795Z,21.86
2018-07-09T07:43:42.820Z,21.74
2018-07-09T07:44:42.844Z,21.96
2018-07-09T07:45:42.869Z,21.92
2018-07-09T07:46:42.892Z,21.97
2018-07-09T07:47:42.916Z,22.08
2018-07-09T07:48:42.948Z,21.86
2018-07-09T07:49:42.966Z,21.78
2018-07-09T07:50:42.991Z,21.77
2018-07-09T07:51:43.013Z,21.85
2018-07-09T07:52:43.039Z,21.78
2018-07-09T07:53:43.063Z,21.85
2018-07-09T07:54:43.088Z,21.96
2018-07-09T07:55:43.114Z,22.11
2018-07-09T07:56:43.134Z,22.00
2018-07-09T07:57:43.158Z,22.07
2018-07-09T07:58:43.185Z,21.97
2018-07-09T07:59:43.213Z,21.49
2018-07-09T08:00:43.232Z,21.18
2018-07-09T08:01:43.257Z,21.30
2018-07-09T08:02:43.280Z,21.52
2018-07-09T08:03:43.306Z,21.61
2018-07-09T08:04:43.328Z,21.61
2018-07-09T08:05:43.354Z,21.70
2018-07-09T08:06:43.377Z,21.83
2018-07-09T08:07:43.404Z,21.82
2018-07-09T08:08:43.425Z,21.92
2018-07-09T08:09:43.557Z,21.76
2018-07-09T08:10:43.475Z,21.64
2018-07-09T08:11:48.561Z,21.73
2018-07-09T08:13:26.875Z,21.77
2018-07-09T08:13:43.570Z,21.92
2018-07-09T08:14:43.582Z,21.80
2018-07-09T08:15:43.596Z,21.77
2018-07-09T08:16:43.619Z,21.83
2018-07-09T08:17:43.641Z,21.80
2018-07-09T08:18:43.669Z,21.86
2018-07-09T08:19:43.692Z,21.94
2018-07-09T08:20:43.716Z,22.24
2018-07-09T08:21:43.801Z,22.55
2018-07-09T08:22:43.762Z,22.61
2018-07-09T08:23:43.785Z,22.69
2018-07-09T08:24:43.814Z,22.71
2018-07-09T08:25:43.930Z,22.76
2018-07-09T08:26:43.862Z,23.01
2018-07-09T08:27:43.883Z,23.01
2018-07-09T08:28:43.908Z,23.16
2018-07-09T08:29:43.940Z,23.32
2018-07-09T08:30:43.962Z,24.04
2018-07-09T08:31:44.016Z,24.94
2018-07-09T08:32:44.006Z,25.63
2018-07-09T08:33:44.031Z,25.99
2018-07-09T08:34:44.054Z,26.06
2018-07-09T08:35:44.084Z,26.19
2018-07-09T08:36:44.106Z,26.15
2018-07-09T08:37:44.128Z,26.45
2018-07-09T08:38:44.155Z,25.85
2018-07-09T08:39:44.180Z,26.23
2018-07-09T08:40:44.210Z,26.60
2018-07-09T08:41:44.283Z,26.90
2018-07-09T08:42:44.264Z,26.91
2018-07-09T08:43:44.287Z,27.05
2018-07-09T08:44:44.317Z,27.05
2018-07-09T08:45:44.345Z,27.34
2018-07-09T08:46:44.369Z,27.11
2018-07-09T08:47:44.398Z,26.90
2018-07-09T08:48:44.422Z,27.13
2018-07-09T08:49:44.454Z,26.99
2018-07-09T08:50:44.481Z,27.04
2018-07-09T08:51:44.512Z,26.37
2018-07-09T08:52:44.544Z,26.53
2018-07-09T08:53:44.563Z,26.22
2018-07-09T08:54:44.596Z,26.67
2018-07-09T08:55:44.622Z,27.09
2018-07-09T08:56:44.649Z,27.51
2018-07-09T08:57:44.677Z,27.62
2018-07-09T08:58:44.707Z,27.36
2018-07-09T08:59:44.738Z,27.26
2018-07-09T09:00:44.766Z,27.28
2018-07-09T09:01:44.796Z,27.66
2018-07-09T09:02:44.843Z,27.89
2018-07-09T09:03:44.858Z,27.71
2018-07-09T09:04:44.880Z,27.93
2018-07-09T09:05:44.909Z,28.38
2018-07-09T09:06:44.941Z,28.80
2018-07-09T09:07:44.969Z,28.95
2018-07-09T09:08:45.001Z,28.54
2018-07-09T09:09:45.037Z,28.54
2018-07-09T09:10:45.063Z,28.36
2018-07-09T09:11:45.091Z,28.08
2018-07-09T09:12:45.135Z,27.41
2018-07-09T09:13:45.152Z,27.65
2018-07-09T09:14:45.178Z,27.21
2018-07-09T09:15:45.209Z,27.00
2018-07-09T09:16:45.240Z,26.67
2018-07-09T09:17:45.274Z,26.15
2018-07-09T09:18:45.302Z,25.74
2018-07-09T09:19:45.332Z,25.19
2018-07-09T09:20:45.363Z,24.74
2018-07-09T09:21:45.393Z,24.58
2018-07-09T09:22:45.424Z,24.32
2018-07-09T09:23:45.452Z,24.00
2018-07-09T09:24:45.478Z,23.72
2018-07-09T09:25:45.508Z,23.55
2018-07-09T09:26:45.539Z,23.66
2018-07-09T09:27:45.567Z,23.84
2018-07-09T09:28:45.598Z,23.74
2018-07-09T09:29:45.625Z,23.90
2018-07-09T09:30:45.656Z,23.90
2018-07-09T09:31:45.684Z,23.81
2018-07-09T09:32:45.720Z,23.67
2018-07-09T09:33:45.738Z,23.56
2018-07-09T09:34:45.766Z,23.66
2018-07-09T09:35:45.795Z,23.70
2018-07-09T09:36:45.821Z,23.71
2018-07-09T09:37:45.850Z,23.63
2018-07-09T09:38:45.880Z,23.72
2018-07-09T09:39:45.906Z,23.72
2018-07-09T09:40:45.930Z,23.64
2018-07-09T09:41:45.957Z,23.59
2018-07-09T09:42:45.990Z,23.66
2018-07-09T09:43:46.016Z,23.72
2018-07-09T09:44:46.040Z,23.87
2018-07-09T09:45:46.071Z,24.02
2018-07-09T09:46:46.094Z,24.02
2018-07-09T09:47:46.119Z,23.97
2018-07-09T09:48:46.147Z,23.89
2018-07-09T09:49:46.171Z,23.90
2018-07-09T09:50:46.196Z,23.82
2018-07-09T09:51:46.225Z,23.94
2018-07-09T09:52:46.251Z,24.02
2018-07-09T09:53:46.275Z,24.27
2018-07-09T09:54:46.301Z,24.32
2018-07-09T09:55:46.329Z,24.36
2018-07-09T09:56:46.355Z,24.34
2018-07-09T09:57:46.379Z,24.22
2018-07-09T09:58:46.409Z,24.09
2018-07-09T09:59:46.431Z,23.99
2018-07-09T10:00:46.459Z,23.55
2018-07-09T10:01:46.483Z,23.37
2018-07-09T10:02:46.508Z,23.12
2018-07-09T10:03:46.536Z,23.16
2018-07-09T10:04:46.560Z,23.38
2018-07-09T10:05:46.588Z,23.47
2018-07-09T10:06:46.611Z,23.57
2018-07-09T10:07:46.639Z,23.70
2018-07-09T10:08:46.664Z,23.70
2018-07-09T10:09:46.686Z,23.66
2018-07-09T10:10:46.715Z,23.64
2018-07-09T10:11:46.739Z,23.59
2018-07-09T10:12:46.862Z,23.67
2018-07-09T10:13:46.787Z,23.75
2018-07-09T10:14:46.812Z,23.74
2018-07-09T10:15:46.838Z,23.94
2018-07-09T10:16:46.868Z,24.00
2018-07-09T10:17:46.891Z,24.30
2018-07-09T10:18:46.916Z,24.46
2018-07-09T10:19:46.942Z,24.37
2018-07-09T10:20:46.963Z,24.46
2018-07-09T10:21:47.194Z,24.36
2018-07-09T10:22:47.068Z,24.17
2018-07-09T10:23:47.041Z,24.09
2018-07-09T10:24:47.064Z,24.34
2018-07-09T10:25:47.088Z,24.54
2018-07-09T10:26:47.117Z,24.46
2018-07-09T10:27:48.581Z,24.58
2018-07-09T10:28:47.163Z,24.61
2018-07-09T10:29:47.189Z,24.93
2018-07-09T10:30:47.215Z,24.64
2018-07-09T10:31:47.241Z,24.69
2018-07-09T10:32:47.268Z,24.45
2018-07-09T10:33:47.290Z,24.49
2018-07-09T10:34:47.318Z,24.15
2018-07-09T10:35:47.344Z,24.22
2018-07-09T10:36:47.368Z,24.33
2018-07-09T10:37:47.394Z,24.24
2018-07-09T10:38:47.417Z,24.12
2018-07-09T10:39:47.444Z,23.96
2018-07-09T10:40:47.471Z,23.84
2018-07-09T10:41:47.492Z,23.71
2018-07-09T10:42:47.520Z,23.66
2018-07-09T10:43:47.542Z,23.53
2018-07-09T10:44:47.568Z,23.48
2018-07-09T10:45:47.593Z,23.37
2018-07-09T10:46:47.620Z,23.37
2018-07-09T10:47:47.646Z,23.28
2018-07-09T10:48:47.670Z,23.32
2018-07-09T10:49:47.693Z,23.32
2018-07-09T10:50:47.721Z,23.37
2018-07-09T10:51:47.746Z,23.25
2018-07-09T10:52:47.770Z,23.25
2018-07-09T10:53:47.796Z,23.42
2018-07-09T10:54:47.819Z,23.57
2018-07-09T10:55:47.844Z,23.59
2018-07-09T10:56:47.869Z,23.64
2018-07-09T10:57:47.893Z,23.89
2018-07-09T10:58:47.918Z,23.79
2018-07-09T10:59:47.940Z,23.77
2018-07-09T11:00:48.022Z,23.56
2018-07-09T11:01:47.990Z,23.53
2018-07-09T11:02:48.018Z,23.53
2018-07-09T11:03:48.042Z,23.52
2018-07-09T11:04:48.067Z,23.59
2018-07-09T11:05:48.093Z,23.62
2018-07-09T11:06:48.116Z,23.67
2018-07-09T11:07:48.137Z,23.78
2018-07-09T11:08:48.165Z,23.67
2018-07-09T11:09:48.191Z,23.70
2018-07-09T11:10:48.214Z,23.70
2018-07-09T11:11:48.239Z,23.85
2018-07-09T11:12:48.264Z,23.90
2018-07-09T11:13:48.287Z,23.71
2018-07-09T11:14:48.309Z,23.66
2018-07-09T11:15:48.336Z,23.53
2018-07-09T11:16:48.358Z,23.29
2018-07-09T11:17:48.382Z,23.04
2018-07-09T11:18:48.409Z,22.91
2018-07-09T11:19:48.433Z,22.76
2018-07-09T11:20:48.458Z,22.79
2018-07-09T11:21:48.480Z,22.71
2018-07-09T11:22:48.505Z,22.73
2018-07-09T11:23:48.532Z,22.78
2018-07-09T11:24:48.555Z,22.78
2018-07-09T11:25:48.579Z,22.69
2018-07-09T11:26:48.603Z,22.79
2018-07-09T11:27:48.627Z,22.73
2018-07-09T11:28:48.648Z,22.76
2018-07-09T11:29:48.676Z,22.79
2018-07-09T11:30:48.697Z,22.76
2018-07-09T11:31:48.723Z,22.82
2018-07-09T11:32:48.745Z,22.92
2018-07-09T11:33:48.775Z,22.97
2018-07-09T11:34:48.792Z,22.91
2018-07-09T11:35:48.820Z,22.86
2018-07-09T11:36:48.841Z,22.84
2018-07-09T11:37:48.865Z,22.75
2018-07-09T11:38:48.891Z,22.73
2018-07-09T11:39:48.915Z,22.63
2018-07-09T11:40:48.938Z,22.57
2018-07-09T11:41:48.968Z,22.75
2018-07-09T11:42:48.983Z,22.82
2018-07-09T11:43:49.007Z,22.89
2018-07-09T11:44:49.048Z,23.01
2018-07-09T11:45:49.058Z,23.18
2018-07-09T11:46:49.082Z,23.18
2018-07-09T11:47:49.105Z,23.19
2018-07-09T11:48:49.129Z,23.25
2018-07-09T11:49:49.156Z,23.29
2018-07-09T11:50:49.177Z,23.52
2018-07-09T11:51:49.196Z,23.41
2018-07-09T11:52:49.224Z,23.35
2018-07-09T11:53:49.247Z,23.25
2018-07-09T11:54:49.271Z,23.32
2018-07-09T11:55:49.294Z,23.32
2018-07-09T11:56:49.320Z,23.47
2018-07-09T11:57:49.340Z,23.47
2018-07-09T11:58:49.393Z,23.77
2018-07-09T11:59:49.391Z,24.09
2018-07-09T12:00:49.415Z,24.11
2018-07-09T12:01:49.449Z,24.24
2018-07-09T12:02:49.461Z,24.26
2018-07-09T12:03:49.483Z,23.97
2018-07-09T12:04:49.576Z,23.89
2018-07-09T12:05:49.535Z,23.78
2018-07-09T12:06:49.558Z,23.82
2018-07-09T12:07:49.582Z,23.85
2018-07-09T12:08:49.607Z,23.96
2018-07-09T12:09:49.632Z,23.79
2018-07-09T12:10:49.657Z,23.84
2018-07-09T12:11:49.678Z,23.67
2018-07-09T12:12:49.701Z,23.66
2018-07-09T12:13:49.726Z,23.55
2018-07-09T12:14:49.754Z,23.57
2018-07-09T12:15:49.777Z,23.59
2018-07-09T12:16:49.800Z,23.53
2018-07-09T12:17:49.824Z,23.62
2018-07-09T12:18:49.848Z,23.66
2018-07-09T12:19:49.873Z,23.70
2018-07-09T12:20:49.900Z,23.93
2018-07-09T12:21:49.920Z,23.89
2018-07-09T12:22:49.945Z,24.07
2018-07-09T12:23:49.968Z,24.08
2018-07-09T12:24:49.996Z,24.02
2018-07-09T12:25:50.021Z,23.92
2018-07-09T12:26:50.043Z,23.93
2018-07-09T12:27:50.070Z,23.89
2018-07-09T12:28:50.139Z,23.78
2018-07-09T12:29:50.119Z,23.74
2018-07-09T12:30:50.142Z,23.84
2018-07-09T12:31:50.164Z,23.90
2018-07-09T12:32:50.188Z,23.97
2018-07-09T12:33:50.216Z,24.09
2018-07-09T12:34:50.239Z,24.18
2018-07-09T12:35:50.261Z,24.32
2018-07-09T12:36:50.286Z,24.80
2018-07-09T12:37:50.310Z,25.17
2018-07-09T12:38:50.337Z,25.67
2018-07-09T12:39:50.363Z,25.54
2018-07-09T12:40:50.386Z,25.54
2018-07-09T12:41:50.408Z,25.70
2018-07-09T12:42:50.435Z,25.91
2018-07-09T12:43:50.501Z,26.06
2018-07-09T12:44:50.489Z,26.03
2018-07-09T12:45:50.507Z,26.07
2018-07-09T12:46:50.532Z,26.15
2018-07-09T12:47:50.560Z,26.16
2018-07-09T12:48:50.582Z,25.64
2018-07-09T12:49:50.661Z,25.24
2018-07-09T12:50:50.742Z,25.20
2018-07-09T12:51:50.657Z,25.30
2018-07-09T12:52:50.683Z,25.27